Vremea mâine în Hârlău - Romania

Vrei sa afli care e starea vremii acum in Iasi - Romania? Dorim sa iti furnizam starea vremii pentru Iasi - Romania. Starea vremii Iasi - Romania pentru astazi.

Vremea mâine în Hârlău

Temperatura minimă:
10.2 °C

Temperatura maximă:
23.9 °C

Mâine va fi: Senin
Precipitații: 0 %
Umiditate: 58%
Viteza maximă vânt mâine:
23.8 km/h

Evoluția vremii in Hârlău pe ore mâine

Ora: 03:00
Temperatura: °C
Sansa de precipitatii: %
Ora Descriere Temp Se simte Precipitatii Umiditate Vant
00:00Senin12.6°12.4°0%67%SSW 6.1 KM/H
01:00Senin12.3°12.2°0%67%SSW 5.8 KM/H
02:00Senin11.9°11.7°0%68%SSW 6.1 KM/H
03:00Senin11.5°11.1°0%70%SSW 6.1 KM/H
04:00Senin11.1°10.8°0%72%SW 5.8 KM/H
05:00Senin10.7°10.4°0%73%SSW 5.4 KM/H
06:00Senin10.2°9.6°0%76%S 6.5 KM/H
07:00Senin11.3°10.7°0%76%S 7.2 KM/H
08:00Senin15°14.7°0%68%S 9 KM/H
09:00Senin17.6°17.6°0%60%S 11.5 KM/H
10:00Senin19.6°19.6°0%54%SSE 14.4 KM/H
11:00Senin21.2°21.2°0%48%SSE 16.6 KM/H
12:00Senin22.5°24.3°0%42%SSE 18.4 KM/H
13:00Senin23.3°24.4°0%38%SSE 20.2 KM/H
14:00Senin23.7°24.4°0%36%SSE 21.2 KM/H
15:00Senin23.9°24.5°0%36%SSE 22 KM/H
16:00Senin23.6°24.4°0%37%SSE 23.8 KM/H
17:00Patchy rain nearby23.2°24.4°86%40%SSE 22 KM/H
18:00Senin22.4°24.4°0%46%SSE 18.4 KM/H
19:00Senin20.4°20.4°0%53%SSE 16.6 KM/H
20:00Senin16.4°16.4°0%62%SSE 15.5 KM/H
21:00Senin15°14°0%62%SSE 15.5 KM/H
22:00Senin13.9°13.2°0%67%S 10.8 KM/H
23:00Senin13.2°12.1°0%70%S 13 KM/H




tutorials